createdAt,value
2023-07-15T12:14:25.691Z,25.00
2023-07-15T12:15:25.684Z,25.00
2023-07-15T12:16:25.685Z,25.00
2023-07-15T12:17:25.694Z,25.00
2023-07-15T12:18:25.647Z,25.00
2023-07-15T12:19:25.878Z,0.00
2023-07-15T12:20:25.644Z,0.00
2023-07-15T12:21:25.634Z,0.00
2023-07-15T12:22:25.663Z,0.00
2023-07-15T12:23:25.618Z,0.00
2023-07-15T12:24:25.618Z,0.00
2023-07-15T12:25:25.606Z,0.00
2023-07-15T12:26:25.621Z,0.00
2023-07-15T12:27:25.616Z,0.00
2023-07-15T12:28:25.571Z,0.00
2023-07-15T12:29:25.581Z,0.00
2023-07-15T12:30:25.663Z,0.00
2023-07-15T12:31:25.649Z,0.00
2023-07-15T12:32:25.575Z,0.00
2023-07-15T12:33:25.544Z,0.00
2023-07-15T12:34:25.547Z,0.00
2023-07-15T12:35:25.547Z,0.00
2023-07-15T12:36:25.543Z,0.00
2023-07-15T12:37:25.511Z,0.00
2023-07-15T12:38:25.508Z,0.00
2023-07-15T12:39:25.506Z,0.00
2023-07-15T12:40:25.513Z,0.00
2023-07-15T12:41:25.500Z,0.00
2023-07-15T12:42:25.483Z,0.00
2023-07-15T12:43:25.472Z,0.00
2023-07-15T12:44:25.472Z,0.00
2023-07-15T12:45:25.476Z,0.00
2023-07-15T12:46:25.486Z,0.00
2023-07-15T12:47:25.502Z,0.00
2023-07-15T12:48:25.454Z,0.00
2023-07-15T12:49:25.441Z,0.00
2023-07-15T12:50:25.446Z,0.00
2023-07-15T12:51:25.430Z,0.00
2023-07-15T12:52:25.425Z,0.00
2023-07-15T12:53:25.437Z,0.00
2023-07-15T12:54:25.412Z,0.00
2023-07-15T12:55:25.430Z,0.00
2023-07-15T12:56:25.410Z,0.00
2023-07-15T12:57:25.396Z,0.00
2023-07-15T12:58:25.401Z,0.00
2023-07-15T12:59:25.467Z,0.00
2023-07-15T13:00:25.545Z,0.00
2023-07-15T13:01:25.608Z,0.00
2023-07-15T13:02:25.710Z,0.00
2023-07-15T13:03:25.776Z,0.00
2023-07-15T13:04:25.769Z,0.00
2023-07-15T13:05:25.835Z,0.00
2023-07-15T13:06:25.895Z,0.00
2023-07-15T13:07:25.929Z,0.00
2023-07-15T13:08:25.975Z,0.00
2023-07-15T13:09:26.053Z,0.00
2023-07-15T13:10:26.119Z,0.00
2023-07-15T13:11:26.161Z,0.00
2023-07-15T13:12:26.221Z,0.00
2023-07-15T13:13:26.279Z,0.00
2023-07-15T13:14:26.330Z,0.00
2023-07-15T13:15:26.405Z,0.00
2023-07-15T13:16:26.471Z,1.10
2023-07-15T13:17:26.551Z,26.39
2023-07-15T13:18:26.546Z,28.23
2023-07-15T13:19:26.565Z,26.63
2023-07-15T13:20:26.651Z,25.00
2023-07-15T13:21:26.731Z,25.00
2023-07-15T13:22:26.782Z,25.21
2023-07-15T13:23:26.813Z,28.91
2023-07-15T13:24:26.859Z,25.09
2023-07-15T13:25:26.917Z,25.00
2023-07-15T13:26:26.972Z,25.26
2023-07-15T13:27:27.029Z,25.50
2023-07-15T13:28:27.092Z,26.74
2023-07-15T13:29:27.134Z,27.25
2023-07-15T13:30:27.200Z,25.29
2023-07-15T13:31:27.282Z,25.00
2023-07-15T13:32:27.300Z,25.00
2023-07-15T13:33:27.342Z,28.43
2023-07-15T13:34:27.379Z,25.73
2023-07-15T13:35:27.425Z,27.33
2023-07-15T13:36:27.467Z,24.89
2023-07-15T13:37:27.536Z,26.35
2023-07-15T13:38:27.570Z,28.28
2023-07-15T13:39:27.614Z,25.91
2023-07-15T13:40:27.663Z,26.95
2023-07-15T13:41:27.706Z,25.61
2023-07-15T13:42:27.750Z,25.00
2023-07-15T13:43:27.798Z,27.05
2023-07-15T13:44:28.377Z,28.28
2023-07-15T13:45:27.923Z,25.00
2023-07-15T13:46:28.038Z,25.00
2023-07-15T13:47:28.078Z,28.36
2023-07-15T13:48:28.121Z,25.88
2023-07-15T13:49:28.142Z,27.19
2023-07-15T13:50:28.197Z,29.38
2023-07-15T13:51:28.254Z,28.86
2023-07-15T13:52:28.308Z,25.67
2023-07-15T13:53:28.387Z,26.49
2023-07-15T13:54:28.405Z,30.81
2023-07-15T13:55:28.450Z,26.50
2023-07-15T13:56:28.486Z,25.00
2023-07-15T13:57:28.552Z,28.72
2023-07-15T13:58:28.564Z,25.89
2023-07-15T13:59:28.603Z,28.40
2023-07-15T14:00:28.657Z,26.79
2023-07-15T14:01:28.708Z,29.99
2023-07-15T14:02:28.738Z,28.35
2023-07-15T14:03:28.867Z,26.95
2023-07-15T14:04:28.962Z,25.49
2023-07-15T14:05:28.909Z,28.77
2023-07-15T14:06:28.947Z,26.70
2023-07-15T14:07:29.010Z,26.31
2023-07-15T14:08:29.059Z,28.42
2023-07-15T14:09:29.123Z,28.48
2023-07-15T14:10:29.217Z,28.05
2023-07-15T14:11:29.216Z,27.92
2023-07-15T14:12:29.263Z,27.43
2023-07-15T14:13:29.326Z,26.82
2023-07-15T14:14:29.372Z,27.27
2023-07-15T14:15:29.427Z,25.14
2023-07-15T14:16:29.527Z,26.22
2023-07-15T14:17:29.601Z,27.23
2023-07-15T14:18:29.586Z,27.01
2023-07-15T14:19:29.611Z,25.00
2023-07-15T14:20:29.669Z,28.98
2023-07-15T14:21:29.717Z,28.81
2023-07-15T14:22:43.127Z,28.98
2023-07-15T14:23:30.799Z,29.28
2023-07-15T14:24:29.763Z,29.87
2023-07-15T14:25:29.765Z,30.70
2023-07-15T14:26:29.760Z,28.46
2023-07-15T14:27:29.736Z,29.09
2023-07-15T14:28:29.734Z,29.36
2023-07-15T14:29:29.722Z,29.20
2023-07-15T14:30:29.713Z,25.00
2023-07-15T14:31:29.806Z,30.36
2023-07-15T14:32:29.913Z,25.00
2023-07-15T14:33:29.804Z,29.04
2023-07-15T14:34:29.837Z,29.67
2023-07-15T14:35:29.900Z,32.18
2023-07-15T14:36:29.945Z,37.30
2023-07-15T14:37:30.037Z,39.17
2023-07-15T14:38:30.067Z,44.06
2023-07-15T14:39:30.135Z,47.08
2023-07-15T14:40:30.182Z,49.21
2023-07-15T14:41:30.224Z,46.48
2023-07-15T14:42:30.278Z,51.79
2023-07-15T14:43:30.331Z,58.11
2023-07-15T14:44:30.380Z,57.54
2023-07-15T14:45:30.423Z,58.73
2023-07-15T14:46:30.502Z,65.61
2023-07-15T14:47:30.579Z,70.08
2023-07-15T14:48:30.576Z,70.31
2023-07-15T14:49:30.622Z,76.52
2023-07-15T14:50:30.675Z,78.42
2023-07-15T14:51:30.734Z,82.03
2023-07-15T14:52:30.809Z,84.42
2023-07-15T14:53:30.860Z,85.91
2023-07-15T14:54:30.906Z,92.06
2023-07-15T14:55:30.958Z,85.42
2023-07-15T14:56:30.995Z,86.92
2023-07-15T14:57:31.041Z,87.99
2023-07-15T14:58:31.087Z,89.83
2023-07-15T14:59:31.156Z,89.69
2023-07-15T15:00:31.219Z,91.91
2023-07-15T15:01:31.523Z,89.05
2023-07-15T15:02:31.367Z,90.81
2023-07-15T15:03:31.404Z,88.20
2023-07-15T15:04:31.441Z,89.31
2023-07-15T15:05:31.509Z,89.55
2023-07-15T15:06:31.553Z,91.62
2023-07-15T15:07:31.605Z,88.90
2023-07-15T15:08:31.641Z,88.84
2023-07-15T15:09:31.684Z,90.77
2023-07-15T15:10:31.706Z,88.54
2023-07-15T15:11:31.749Z,90.17
2023-07-15T15:12:31.808Z,85.92
2023-07-15T15:13:31.860Z,87.36
2023-07-15T15:14:31.915Z,86.04
2023-07-15T15:15:31.964Z,83.23
2023-07-15T15:16:32.181Z,83.61
2023-07-15T15:17:32.032Z,81.79
2023-07-15T15:18:32.071Z,83.83
2023-07-15T15:19:32.123Z,80.67
2023-07-15T15:20:32.168Z,82.16
2023-07-15T15:21:32.198Z,78.80
2023-07-15T15:22:32.477Z,81.51
2023-07-15T15:23:32.277Z,77.29
2023-07-15T15:24:32.317Z,76.45
2023-07-15T15:25:32.374Z,76.43
2023-07-15T15:26:32.396Z,77.59
2023-07-15T15:27:32.415Z,74.50
2023-07-15T15:28:32.458Z,73.93
2023-07-15T15:29:32.468Z,75.00
2023-07-15T15:30:32.528Z,73.62
2023-07-15T15:31:32.550Z,71.98
2023-07-15T15:32:32.595Z,67.55
2023-07-15T15:33:32.699Z,68.40
2023-07-15T15:34:32.676Z,70.28
2023-07-15T15:35:32.706Z,66.27
2023-07-15T15:36:32.725Z,66.68
2023-07-15T15:37:32.740Z,67.90
2023-07-15T15:38:32.772Z,65.92
2023-07-15T15:39:32.793Z,62.46
2023-07-15T15:40:32.818Z,63.35
2023-07-15T15:41:32.832Z,60.89
2023-07-15T15:42:32.900Z,59.52
2023-07-15T15:43:32.872Z,61.04
2023-07-15T15:44:32.929Z,57.64
2023-07-15T15:45:32.945Z,56.67
2023-07-15T15:46:33.017Z,54.97
2023-07-15T15:47:33.050Z,54.49
2023-07-15T15:48:33.061Z,50.93
2023-07-15T15:49:33.126Z,54.08
2023-07-15T15:50:33.187Z,51.33
2023-07-15T15:51:33.243Z,53.06
2023-07-15T15:52:33.275Z,54.45
2023-07-15T15:53:33.324Z,52.25
2023-07-15T15:54:33.944Z,51.99
2023-07-15T15:55:33.396Z,52.28
2023-07-15T15:56:33.453Z,50.53
2023-07-15T15:57:33.495Z,50.53
2023-07-15T15:58:33.531Z,52.50
2023-07-15T15:59:33.583Z,52.92
2023-07-15T16:00:33.646Z,49.87
2023-07-15T16:01:33.766Z,48.47
2023-07-15T16:02:33.763Z,47.27
2023-07-15T16:03:33.892Z,45.47
2023-07-15T16:04:33.765Z,44.63
2023-07-15T16:05:33.817Z,43.55
2023-07-15T16:06:33.912Z,43.70
2023-07-15T16:07:33.911Z,40.42
2023-07-15T16:08:33.926Z,43.46
2023-07-15T16:09:33.955Z,44.91
2023-07-15T16:10:34.017Z,42.36
2023-07-15T16:11:34.018Z,40.81
2023-07-15T16:12:34.074Z,39.62
2023-07-15T16:13:34.113Z,40.01
2023-07-15T16:14:34.160Z,37.93
2023-07-15T16:15:34.197Z,38.88
2023-07-15T16:16:34.304Z,38.27
2023-07-15T16:17:34.275Z,36.68
2023-07-15T16:18:34.303Z,36.75
2023-07-15T16:19:34.338Z,39.31
2023-07-15T16:20:34.378Z,39.30
2023-07-15T16:21:34.418Z,43.15
2023-07-15T16:22:34.464Z,37.21
2023-07-15T16:23:34.474Z,39.60
2023-07-15T16:24:34.495Z,42.04
2023-07-15T16:25:34.515Z,36.02
2023-07-15T16:26:34.566Z,34.49
2023-07-15T16:27:34.568Z,34.81
2023-07-15T16:28:34.594Z,39.16
2023-07-15T16:29:34.628Z,38.31
2023-07-15T16:30:34.641Z,37.82
2023-07-15T16:31:37.306Z,36.04
2023-07-15T16:32:35.762Z,36.27
2023-07-15T16:33:34.646Z,36.94
2023-07-15T16:34:34.676Z,36.60
2023-07-15T16:35:34.638Z,36.50
2023-07-15T16:36:34.630Z,37.00
2023-07-15T16:37:34.627Z,37.53
2023-07-15T16:38:34.622Z,37.08
2023-07-15T16:39:34.614Z,33.47
2023-07-15T16:40:34.626Z,35.55
2023-07-15T16:41:34.611Z,34.80
2023-07-15T16:42:34.593Z,32.03
2023-07-15T16:43:34.592Z,30.72
2023-07-15T16:44:34.582Z,31.24
2023-07-15T16:45:34.581Z,31.40
2023-07-15T16:46:34.615Z,33.40
2023-07-15T16:47:34.582Z,35.07
2023-07-15T16:48:34.563Z,29.72
2023-07-15T16:49:34.553Z,29.07
2023-07-15T16:50:34.547Z,30.91
2023-07-15T16:51:34.537Z,29.96
2023-07-15T16:52:34.550Z,29.47
2023-07-15T16:53:34.572Z,30.36
2023-07-15T16:54:34.576Z,28.98
2023-07-15T16:55:34.576Z,31.00
2023-07-15T16:56:34.607Z,28.42
2023-07-15T16:57:34.607Z,27.65
2023-07-15T16:58:34.609Z,30.92
2023-07-15T16:59:34.611Z,28.67
2023-07-15T17:00:34.644Z,28.81
2023-07-15T17:01:34.710Z,27.11
2023-07-15T17:02:34.676Z,29.94
2023-07-15T17:03:34.826Z,27.80
2023-07-15T17:04:34.684Z,30.00
2023-07-15T17:05:34.706Z,28.81
2023-07-15T17:06:34.749Z,30.16
2023-07-15T17:07:34.785Z,29.23
2023-07-15T17:08:34.820Z,28.41
2023-07-15T17:09:34.842Z,29.87
2023-07-15T17:10:34.858Z,30.28
2023-07-15T17:11:34.871Z,30.37
2023-07-15T17:12:34.897Z,27.21
2023-07-15T17:13:34.902Z,31.03
2023-07-15T17:14:34.938Z,32.34
2023-07-15T17:15:34.927Z,26.33
2023-07-15T17:16:34.986Z,27.46
2023-07-15T17:17:34.995Z,26.36
2023-07-15T17:18:34.980Z,30.91
2023-07-15T17:19:35.030Z,27.43
2023-07-15T17:20:35.069Z,28.28
2023-07-15T17:21:35.135Z,26.71
2023-07-15T17:22:35.184Z,29.84
2023-07-15T17:23:35.188Z,27.70
2023-07-15T17:24:35.187Z,31.33
2023-07-15T17:25:35.208Z,28.65
2023-07-15T17:26:35.962Z,26.38
2023-07-15T17:27:35.265Z,28.27
2023-07-15T17:28:35.305Z,29.23
2023-07-15T17:29:35.334Z,27.94
2023-07-15T17:30:35.368Z,25.42
2023-07-15T17:31:35.444Z,28.64
2023-07-15T17:32:35.424Z,30.13
2023-07-15T17:33:35.494Z,31.26
2023-07-15T17:34:35.458Z,29.89
2023-07-15T17:35:35.489Z,32.60
2023-07-15T17:36:35.495Z,28.04
2023-07-15T17:37:35.550Z,30.25
2023-07-15T17:38:35.575Z,31.08
2023-07-15T17:39:35.618Z,33.25
2023-07-15T17:40:35.661Z,27.71
2023-07-15T17:41:35.705Z,29.52
2023-07-15T17:42:35.753Z,29.25
2023-07-15T17:43:35.796Z,28.85
2023-07-15T17:44:35.840Z,30.39
2023-07-15T17:45:35.862Z,26.88
2023-07-15T17:46:35.878Z,26.67
2023-07-15T17:47:37.492Z,26.47
2023-07-15T17:48:35.904Z,27.74
2023-07-15T17:49:35.946Z,32.13
2023-07-15T17:50:36.004Z,29.06
2023-07-15T17:51:36.022Z,29.83
2023-07-15T17:52:36.045Z,29.24
2023-07-15T17:53:36.085Z,29.91
2023-07-15T17:54:36.108Z,32.29
2023-07-15T17:55:36.123Z,31.64
2023-07-15T17:56:36.155Z,29.63
2023-07-15T17:57:36.160Z,31.36
2023-07-15T17:58:36.205Z,32.39
2023-07-15T17:59:36.244Z,31.70
2023-07-15T18:00:36.262Z,30.40
2023-07-15T18:01:36.335Z,28.87
2023-07-15T18:02:36.400Z,28.75
2023-07-15T18:03:36.354Z,29.57
2023-07-15T18:04:36.332Z,27.56
2023-07-15T18:05:36.364Z,31.13
2023-07-15T18:06:36.369Z,26.29
2023-07-15T18:07:36.400Z,29.68
2023-07-15T18:08:36.416Z,28.71
2023-07-15T18:09:36.473Z,27.25
2023-07-15T18:10:36.440Z,25.94
2023-07-15T18:11:36.490Z,28.30
2023-07-15T18:12:36.502Z,29.97
2023-07-15T18:13:36.537Z,29.05
2023-07-15T18:14:36.555Z,26.20
2023-07-15T18:15:36.624Z,30.54
2023-07-15T18:16:36.645Z,29.45
2023-07-15T18:17:36.675Z,29.75
2023-07-15T18:18:36.660Z,31.24
2023-07-15T18:19:36.670Z,30.97
2023-07-15T18:20:36.679Z,31.42
2023-07-15T18:21:36.678Z,29.31
2023-07-15T18:22:36.773Z,28.55
2023-07-15T18:23:36.704Z,30.13
2023-07-15T18:24:36.739Z,28.35
2023-07-15T18:25:36.749Z,31.35
2023-07-15T18:26:36.815Z,33.55
2023-07-15T18:27:36.832Z,30.99
2023-07-15T18:28:36.883Z,32.08
2023-07-15T18:29:36.936Z,29.87
2023-07-15T18:30:36.904Z,33.93
2023-07-15T18:31:37.041Z,33.85
2023-07-15T18:32:36.988Z,31.10
2023-07-15T18:33:36.985Z,30.12
2023-07-15T18:34:37.006Z,32.09
2023-07-15T18:35:37.004Z,31.76
2023-07-15T18:36:37.032Z,30.49
2023-07-15T18:37:37.051Z,33.74
2023-07-15T18:38:37.133Z,36.28
2023-07-15T18:39:37.108Z,30.86
2023-07-15T18:40:37.133Z,31.35
2023-07-15T18:41:37.161Z,31.16
2023-07-15T18:42:37.181Z,33.81
2023-07-15T18:43:37.216Z,34.81
2023-07-15T18:44:37.234Z,35.83
2023-07-15T18:45:37.235Z,30.34
2023-07-15T18:46:37.259Z,33.06
2023-07-15T18:47:37.281Z,31.98
2023-07-15T18:48:37.281Z,31.59
2023-07-15T18:49:37.289Z,33.98
2023-07-15T18:50:37.305Z,30.77
2023-07-15T18:51:37.318Z,32.15
2023-07-15T18:52:37.346Z,32.59
2023-07-15T18:53:37.335Z,34.58
2023-07-15T18:54:37.360Z,32.08
2023-07-15T18:55:37.365Z,32.32
2023-07-15T18:56:37.385Z,32.18
2023-07-15T18:57:37.397Z,32.47
2023-07-15T18:58:37.426Z,33.65
2023-07-15T18:59:37.425Z,32.01
2023-07-15T19:00:37.470Z,32.04
2023-07-15T19:01:37.444Z,32.33
2023-07-15T19:02:37.528Z,36.97
2023-07-15T19:03:37.545Z,37.28
2023-07-15T19:04:37.479Z,36.04
2023-07-15T19:05:37.509Z,34.56
2023-07-15T19:06:37.544Z,36.05
2023-07-15T19:07:37.557Z,37.02
2023-07-15T19:08:37.580Z,36.30
2023-07-15T19:09:37.617Z,38.13
2023-07-15T19:10:37.628Z,36.42
2023-07-15T19:11:37.856Z,35.85
2023-07-15T19:12:37.663Z,37.14
2023-07-15T19:13:37.703Z,37.68
2023-07-15T19:14:37.708Z,37.40
2023-07-15T19:15:37.753Z,35.90
2023-07-15T19:16:37.821Z,36.89
2023-07-15T19:17:37.854Z,38.20
2023-07-15T19:18:37.841Z,36.50
2023-07-15T19:19:37.877Z,36.34
2023-07-15T19:20:37.899Z,37.51
2023-07-15T19:21:37.919Z,36.98
2023-07-15T19:22:37.998Z,38.74
2023-07-15T19:23:37.938Z,40.62
2023-07-15T19:24:37.956Z,41.23
2023-07-15T19:25:37.999Z,37.18
2023-07-15T19:26:38.018Z,38.39
2023-07-15T19:27:38.022Z,37.36
2023-07-15T19:28:38.046Z,40.70
2023-07-15T19:29:38.052Z,37.81
2023-07-15T19:30:38.093Z,40.69
2023-07-15T19:31:38.140Z,39.51
2023-07-15T19:32:38.124Z,38.92
2023-07-15T19:33:38.121Z,39.78
2023-07-15T19:34:38.163Z,37.47
2023-07-15T19:35:38.172Z,40.02
2023-07-15T19:36:38.170Z,41.43
2023-07-15T19:37:38.186Z,38.68
2023-07-15T19:38:38.276Z,40.93
2023-07-15T19:39:38.241Z,40.02
2023-07-15T19:40:38.239Z,39.18
2023-07-15T19:41:38.281Z,40.40
2023-07-15T19:42:38.288Z,41.72
2023-07-15T19:43:38.304Z,38.24
2023-07-15T19:44:38.324Z,40.03
2023-07-15T19:45:38.319Z,40.36
2023-07-15T19:46:38.443Z,42.06
2023-07-15T19:47:38.386Z,38.71
2023-07-15T19:48:38.376Z,40.76
2023-07-15T19:49:38.400Z,40.70
2023-07-15T19:50:38.439Z,39.29
2023-07-15T19:51:45.910Z,39.70
2023-07-15T19:52:39.425Z,40.05
2023-07-15T19:53:38.428Z,40.45
2023-07-15T19:54:38.405Z,41.61
2023-07-15T19:55:38.402Z,40.76
2023-07-15T19:56:38.402Z,44.36
2023-07-15T19:57:38.402Z,43.15
2023-07-15T19:58:38.392Z,41.23
2023-07-15T19:59:38.377Z,38.53
2023-07-15T20:00:38.373Z,43.63
2023-07-15T20:01:38.437Z,43.01
2023-07-15T20:02:38.439Z,37.71
2023-07-15T20:03:38.495Z,41.76
2023-07-15T20:04:38.349Z,41.01
2023-07-15T20:05:38.349Z,40.63
2023-07-15T20:06:38.355Z,41.41
2023-07-15T20:07:38.335Z,40.42
2023-07-15T20:08:38.356Z,38.22
2023-07-15T20:09:38.333Z,42.91
2023-07-15T20:10:38.317Z,40.44
2023-07-15T20:11:38.318Z,34.32
2023-07-15T20:12:38.310Z,44.04
2023-07-15T20:13:38.304Z,39.07
2023-07-15T20:14:38.301Z,45.36
2023-07-15T20:15:38.285Z,42.49
2023-07-15T20:16:38.337Z,39.12
2023-07-15T20:17:38.293Z,37.99
2023-07-15T20:18:38.272Z,42.04
2023-07-15T20:19:38.266Z,38.43
2023-07-15T20:20:38.259Z,40.44
2023-07-15T20:21:38.327Z,41.49
2023-07-15T20:22:38.253Z,42.51
2023-07-15T20:23:38.232Z,41.74
2023-07-15T20:24:38.228Z,42.68
2023-07-15T20:25:38.228Z,40.79
2023-07-15T20:26:38.249Z,43.85
2023-07-15T20:27:38.260Z,42.88
2023-07-15T20:28:38.289Z,41.61
2023-07-15T20:29:38.290Z,40.34
2023-07-15T20:30:38.307Z,41.06
2023-07-15T20:31:38.385Z,44.76
2023-07-15T20:32:38.412Z,45.17
2023-07-15T20:33:38.376Z,40.96
2023-07-15T20:34:38.399Z,42.21
2023-07-15T20:35:38.388Z,42.97
2023-07-15T20:36:38.386Z,45.23
2023-07-15T20:37:38.399Z,41.73
2023-07-15T20:38:38.431Z,43.79
2023-07-15T20:39:38.451Z,45.54
2023-07-15T20:40:50.222Z,42.77
2023-07-15T20:41:39.498Z,43.08
2023-07-15T20:42:38.460Z,43.67
2023-07-15T20:43:38.440Z,44.05
2023-07-15T20:44:38.444Z,46.67
2023-07-15T20:45:38.435Z,49.65
2023-07-15T20:46:38.459Z,44.95
2023-07-15T20:47:38.437Z,44.16
2023-07-15T20:48:38.422Z,44.01
2023-07-15T20:49:38.412Z,46.66
2023-07-15T20:50:38.401Z,44.49
2023-07-15T20:51:38.397Z,47.95
2023-07-15T20:52:38.395Z,44.96
2023-07-15T20:53:38.389Z,45.29
2023-07-15T20:54:38.392Z,43.45
2023-07-15T20:55:38.423Z,44.69
2023-07-15T20:56:38.369Z,47.97
2023-07-15T20:57:38.379Z,46.56
2023-07-15T20:58:38.350Z,45.83
2023-07-15T20:59:38.369Z,47.48
2023-07-15T21:00:38.348Z,45.17
2023-07-15T21:01:38.372Z,46.60
2023-07-15T21:02:38.383Z,47.31
2023-07-15T21:03:38.344Z,45.74
2023-07-15T21:04:38.354Z,48.03
2023-07-15T21:05:38.320Z,48.23
2023-07-15T21:06:38.314Z,46.06
2023-07-15T21:07:38.303Z,50.34
2023-07-15T21:08:38.296Z,44.45
2023-07-15T21:09:38.291Z,47.13
2023-07-15T21:10:38.290Z,45.41
2023-07-15T21:11:38.286Z,46.71
2023-07-15T21:12:38.289Z,46.36
2023-07-15T21:13:38.264Z,46.36
2023-07-15T21:14:38.255Z,43.98
2023-07-15T21:15:38.257Z,48.01
2023-07-15T21:16:38.328Z,45.01
2023-07-15T21:17:38.329Z,46.48
2023-07-15T21:18:38.237Z,46.95
2023-07-15T21:19:38.240Z,46.93
2023-07-15T21:20:38.233Z,46.90
2023-07-15T21:21:38.266Z,45.14
2023-07-15T21:22:38.339Z,46.68
2023-07-15T21:23:38.292Z,44.68
2023-07-15T21:24:38.284Z,48.61
2023-07-15T21:25:38.333Z,47.54
2023-07-15T21:26:38.600Z,46.13
2023-07-15T21:27:38.340Z,49.18
2023-07-15T21:28:38.325Z,47.20
2023-07-15T21:29:38.325Z,49.33
2023-07-15T21:30:38.323Z,48.79
2023-07-15T21:31:38.373Z,48.87
2023-07-15T21:32:38.409Z,49.50
2023-07-15T21:33:38.357Z,47.78
2023-07-15T21:34:38.357Z,47.98
2023-07-15T21:35:38.376Z,50.08
2023-07-15T21:36:38.349Z,48.59
2023-07-15T21:37:38.353Z,51.45
2023-07-15T21:38:38.366Z,48.02
2023-07-15T21:39:38.370Z,49.55
2023-07-15T21:40:38.379Z,46.80
2023-07-15T21:41:38.381Z,43.70
2023-07-15T21:42:38.379Z,48.64
2023-07-15T21:43:38.391Z,46.98
2023-07-15T21:44:38.391Z,46.37
2023-07-15T21:45:38.416Z,46.67
2023-07-15T21:46:38.506Z,52.21
2023-07-15T21:47:38.437Z,50.16
2023-07-15T21:48:38.430Z,49.69
2023-07-15T21:49:38.448Z,49.10
2023-07-15T21:50:38.425Z,47.86
2023-07-15T21:51:38.416Z,45.22
2023-07-15T21:52:38.423Z,47.94
2023-07-15T21:53:38.424Z,46.71
2023-07-15T21:54:38.416Z,48.22
2023-07-15T21:55:38.415Z,46.77
2023-07-15T21:56:38.409Z,49.62
2023-07-15T21:57:38.414Z,46.83
2023-07-15T21:58:38.404Z,47.45
2023-07-15T21:59:38.421Z,45.83
2023-07-15T22:00:39.915Z,47.73
2023-07-15T22:01:38.476Z,50.25
2023-07-15T22:02:38.474Z,49.53
2023-07-15T22:03:38.499Z,49.87
2023-07-15T22:04:38.435Z,47.77
2023-07-15T22:05:38.428Z,48.32
2023-07-15T22:06:38.425Z,47.54
2023-07-15T22:07:38.468Z,51.25
2023-07-15T22:08:38.502Z,51.86
2023-07-15T22:09:38.524Z,50.22
2023-07-15T22:10:38.528Z,47.59
2023-07-15T22:11:38.530Z,47.74
2023-07-15T22:12:38.540Z,48.26
2023-07-15T22:13:38.527Z,49.02
2023-07-15T22:14:38.526Z,48.08
2023-07-15T22:15:38.556Z,45.21
2023-07-15T22:16:38.581Z,49.94
2023-07-15T22:17:38.569Z,48.51
2023-07-15T22:18:41.046Z,50.11
2023-07-15T22:19:38.546Z,52.44
2023-07-15T22:20:38.547Z,52.99
2023-07-15T22:21:38.524Z,49.99
2023-07-15T22:22:38.633Z,49.45
2023-07-15T22:23:38.519Z,49.01
2023-07-15T22:24:38.514Z,47.91
2023-07-15T22:25:38.517Z,48.87
2023-07-15T22:26:38.488Z,50.35
2023-07-15T22:27:38.473Z,50.76
2023-07-15T22:28:38.479Z,52.80
2023-07-15T22:29:38.481Z,49.35
2023-07-15T22:30:38.472Z,52.49
2023-07-15T22:31:38.602Z,47.99
2023-07-15T22:32:38.485Z,50.88
2023-07-15T22:33:38.462Z,50.94
2023-07-15T22:34:38.444Z,50.76
2023-07-15T22:35:38.437Z,49.26
2023-07-15T22:36:38.424Z,49.58
2023-07-15T22:37:38.429Z,48.96
2023-07-15T22:38:38.420Z,53.33
2023-07-15T22:39:38.412Z,51.37
2023-07-15T22:40:38.408Z,48.00
2023-07-15T22:41:38.419Z,49.99
2023-07-15T22:42:38.629Z,51.71
2023-07-15T22:43:38.390Z,51.63
2023-07-15T22:44:38.389Z,47.80
2023-07-15T22:45:52.065Z,51.74
2023-07-15T22:46:39.418Z,52.25
2023-07-15T22:47:38.398Z,53.22
2023-07-15T22:48:38.358Z,53.12
2023-07-15T22:49:38.342Z,53.59
2023-07-15T22:50:38.334Z,53.05
2023-07-15T22:51:38.330Z,56.04
2023-07-15T22:52:38.327Z,51.88
2023-07-15T22:53:38.321Z,51.84
2023-07-15T22:54:38.317Z,53.94
2023-07-15T22:55:38.314Z,54.22
2023-07-15T22:56:38.298Z,50.05
2023-07-15T22:57:38.298Z,48.41
2023-07-15T22:58:38.303Z,52.45
2023-07-15T22:59:38.286Z,50.33
2023-07-15T23:00:38.341Z,50.75
2023-07-15T23:01:38.302Z,51.99
2023-07-15T23:02:38.329Z,49.50
2023-07-15T23:03:38.322Z,47.70
2023-07-15T23:04:38.256Z,48.03
2023-07-15T23:05:38.263Z,50.16
2023-07-15T23:06:38.257Z,51.98
2023-07-15T23:07:38.243Z,49.41
2023-07-15T23:08:38.253Z,48.17
2023-07-15T23:09:38.231Z,50.01
2023-07-15T23:10:38.220Z,52.40
2023-07-15T23:11:38.216Z,51.43
2023-07-15T23:12:38.214Z,46.90
2023-07-15T23:13:38.210Z,46.91
2023-07-15T23:14:38.196Z,48.53
2023-07-15T23:15:38.207Z,51.88
2023-07-15T23:16:38.217Z,48.13
2023-07-15T23:17:38.254Z,49.80
2023-07-15T23:18:38.176Z,46.76
2023-07-15T23:19:38.168Z,46.98
2023-07-15T23:20:38.159Z,47.34
2023-07-15T23:21:38.185Z,46.49
2023-07-15T23:22:38.164Z,48.79
2023-07-15T23:23:38.222Z,46.94
2023-07-15T23:24:38.135Z,49.86
2023-07-15T23:25:38.133Z,46.30
2023-07-15T23:26:38.112Z,49.01
2023-07-15T23:27:38.111Z,46.26
2023-07-15T23:28:38.106Z,49.96
2023-07-15T23:29:38.104Z,50.65
2023-07-15T23:30:38.193Z,51.94
2023-07-15T23:31:38.096Z,49.11
2023-07-15T23:32:38.114Z,48.32
2023-07-15T23:33:38.084Z,49.75
2023-07-15T23:34:38.069Z,49.60
2023-07-15T23:35:38.087Z,51.17
2023-07-15T23:36:38.092Z,50.45
2023-07-15T23:37:38.080Z,48.77
2023-07-15T23:38:38.099Z,50.61
2023-07-15T23:39:38.574Z,51.24
2023-07-15T23:40:38.108Z,50.09
2023-07-15T23:41:38.124Z,50.66
2023-07-15T23:42:38.108Z,46.91
2023-07-15T23:43:38.117Z,49.83
2023-07-15T23:44:38.120Z,50.26
2023-07-15T23:45:38.121Z,47.99
2023-07-15T23:46:38.195Z,51.09
2023-07-15T23:47:38.151Z,49.37
2023-07-15T23:48:38.146Z,46.76
2023-07-15T23:49:38.157Z,47.96
2023-07-15T23:50:38.173Z,51.37
2023-07-15T23:51:38.172Z,50.43
2023-07-15T23:52:38.172Z,50.29
2023-07-15T23:53:38.178Z,48.04
2023-07-15T23:54:38.176Z,50.82
2023-07-15T23:55:38.186Z,48.64
2023-07-15T23:56:38.183Z,47.40
2023-07-15T23:57:38.190Z,48.43
2023-07-15T23:58:38.188Z,47.23
2023-07-15T23:59:38.204Z,52.51
